Time;durP1;ratioP1;P1;durP2;ratioP2;P2;SDS_P1;SDS_P2;PMS_P1;PMS_P2;Temp;Humidity;BMP_temperature;BMP_pressure;BME280_temperature;BME280_humidity;BME280_pressure;Samples;Min_cycle;Max_cycle;Signal;HPM_P1;HPM_P2
2021/05/27 00:00:21;;;;;;;1999.90;999.90;;;;;;;17.86;100.00;95522.03;5069766;28;20197;-61
2021/05/27 00:02:48;;;;;;;1999.90;999.90;;;;;;;17.87;100.00;95526.19;5070936;28;20192;-62
2021/05/27 00:05:16;;;;;;;1999.90;999.90;;;;;;;17.88;100.00;95536.34;5070953;28;20195;-61
2021/05/27 00:07:43;;;;;;;1999.90;999.90;;;;;;;17.81;100.00;95533.56;5070698;28;20196;-61
2021/05/27 00:10:12;;;;;;;1999.90;999.90;;;;;;;17.85;100.00;95534.41;5070713;28;20218;-60
2021/05/27 00:12:39;;;;;;;1999.90;999.90;;;;;;;17.82;100.00;95540.38;5070333;28;20659;-60
2021/05/27 00:15:11;;;;;;;1999.90;999.90;;;;;;;17.81;100.00;95533.56;5070515;28;20572;-62
2021/05/27 00:17:42;;;;;;;1999.90;999.90;;;;;;;17.72;100.00;95534.84;5070593;28;20566;-61
2021/05/27 00:20:14;;;;;;;1999.90;999.90;;;;;;;17.66;100.00;95538.78;5070304;28;20656;-61
2021/05/27 00:22:47;;;;;;;1999.90;999.90;;;;;;;17.57;100.00;95528.41;5070750;28;20204;-62
2021/05/27 00:25:15;;;;;;;1999.90;999.90;;;;;;;17.59;100.00;95529.63;5068963;28;20216;-60
2021/05/27 00:27:42;;;;;;;1999.90;999.90;;;;;;;17.64;100.00;95531.25;5070655;28;20188;-61
2021/05/27 00:33:32;;;;;;;1999.90;999.90;;;;;;;17.54;100.00;95531.69;5069965;28;20297;-61
2021/05/27 00:35:59;;;;;;;1999.90;999.90;;;;;;;17.57;100.00;95531.03;5070003;28;20200;-61
2021/05/27 00:41:47;;;;;;;1999.90;999.90;;;;;;;17.42;100.00;95542.28;5069964;28;20223;-60
2021/05/27 00:44:22;;;;;;;1999.90;999.90;;;;;;;17.33;100.00;95539.03;5069875;28;20192;-59
2021/05/27 00:46:49;;;;;;;1999.90;999.90;;;;;;;17.20;100.00;95541.69;5070069;28;20277;-61
2021/05/27 00:49:17;;;;;;;1999.90;999.90;;;;;;;17.04;100.00;95548.75;5069772;28;20282;-60
2021/05/27 00:51:45;;;;;;;1999.90;999.90;;;;;;;16.99;100.00;95545.59;5069751;28;20231;-61
2021/05/27 00:54:13;;;;;;;1999.90;999.90;;;;;;;17.13;100.00;95546.00;5069810;28;20257;-60
2021/05/27 00:56:41;;;;;;;1999.90;999.90;;;;;;;17.16;100.00;95546.09;5070350;28;20249;-61
2021/05/27 00:59:09;;;;;;;1999.90;999.90;;;;;;;17.20;100.00;95549.56;5069955;28;20208;-61
2021/05/27 01:01:36;;;;;;;1999.90;999.90;;;;;;;17.16;100.00;95543.47;5069735;28;20240;-60
2021/05/27 01:04:04;;;;;;;1999.90;999.90;;;;;;;17.23;100.00;95538.41;5069634;28;20224;-60
2021/05/27 01:06:31;;;;;;;1999.90;999.90;;;;;;;17.28;100.00;95534.03;5069865;28;20202;-60
2021/05/27 01:08:59;;;;;;;1999.90;999.90;;;;;;;17.30;100.00;95539.69;5069665;28;20269;-61
2021/05/27 01:11:26;;;;;;;1999.90;999.90;;;;;;;17.18;100.00;95536.00;5070467;28;20203;-60
2021/05/27 01:13:53;;;;;;;1999.90;999.90;;;;;;;17.18;100.00;95536.00;5073361;28;20731;-61
2021/05/27 01:16:20;;;;;;;1999.90;999.90;;;;;;;17.23;100.00;95536.88;5073451;28;20208;-61
2021/05/27 01:18:47;;;;;;;1999.90;999.90;;;;;;;17.18;100.00;95530.75;5073469;28;20680;-61
2021/05/27 01:21:14;;;;;;;1999.90;999.90;;;;;;;16.95;100.00;95532.38;5073542;28;20232;-60
2021/05/27 01:23:42;;;;;;;1999.90;999.90;;;;;;;16.83;100.00;95524.53;5073166;28;20218;-61
2021/05/27 01:26:10;;;;;;;1999.90;999.90;;;;;;;16.96;100.00;95527.88;5073328;28;20245;-61
2021/05/27 01:28:38;;;;;;;1999.90;999.90;;;;;;;17.06;100.00;95527.41;5073334;28;20205;-60
2021/05/27 01:31:07;;;;;;;1999.90;999.90;;;;;;;17.12;100.00;95518.22;5073365;28;20235;-61
2021/05/27 01:33:34;;;;;;;1999.90;999.90;;;;;;;17.21;100.00;95513.56;5072885;28;20258;-60
2021/05/27 01:36:01;;;;;;;1999.90;999.90;;;;;;;17.21;100.00;95508.31;5072992;28;20575;-61
2021/05/27 01:38:30;;;;;;;1999.90;999.90;;;;;;;17.21;100.00;95505.69;5072886;28;21099;-61
2021/05/27 01:41:03;;;;;;;1999.90;999.90;;;;;;;17.29;100.00;95494.28;5073243;28;20258;-62
2021/05/27 01:43:30;;;;;;;1999.90;999.90;;;;;;;17.42;100.00;95502.88;5073163;28;20200;-61
2021/05/27 01:45:57;;;;;;;1999.90;999.90;;;;;;;17.61;100.00;95511.66;5072863;28;20199;-61
2021/05/27 01:48:23;;;;;;;1999.90;999.90;;;;;;;17.71;100.00;95507.78;5072978;28;20605;-60
2021/05/27 01:50:50;;;;;;;1999.90;999.90;;;;;;;17.82;100.00;95498.28;5072806;28;20197;-60
2021/05/27 01:53:18;;;;;;;1999.90;999.90;;;;;;;17.84;100.00;95493.44;5072885;28;20223;-60
2021/05/27 01:55:46;;;;;;;1999.90;999.90;;;;;;;17.92;100.00;95500.41;5072552;28;20315;-61
2021/05/27 01:58:15;;;;;;;1999.90;999.90;;;;;;;17.89;100.00;95505.56;5072542;28;20283;-61
2021/05/27 02:00:43;;;;;;;1999.90;999.90;;;;;;;17.89;100.00;95510.84;5072568;28;20625;-62
2021/05/27 02:03:10;;;;;;;1999.90;999.90;;;;;;;17.87;100.00;95513.06;5074454;28;20192;-60
2021/05/27 02:05:37;;;;;;;1999.90;999.90;;;;;;;17.82;100.00;95514.06;5074097;28;20193;-61
2021/05/27 02:08:05;;;;;;;1999.90;999.90;;;;;;;17.85;100.00;95528.38;5072729;28;20228;-61
2021/05/27 02:10:32;;;;;;;1999.90;999.90;;;;;;;17.85;100.00;95521.28;5072385;28;20208;-61
2021/05/27 02:12:58;;;;;;;1999.90;999.90;;;;;;;17.89;100.00;95527.38;5072236;28;20761;-61
2021/05/27 02:15:26;;;;;;;1999.90;999.90;;;;;;;17.92;100.00;95524.09;5072336;28;20590;-61
2021/05/27 02:17:53;;;;;;;1999.90;999.90;;;;;;;17.95;100.00;95523.41;5072294;28;20208;-61
2021/05/27 02:20:20;;;;;;;1999.90;999.90;;;;;;;17.93;100.00;95517.69;5072384;28;20325;-61
2021/05/27 02:22:46;;;;;;;1999.90;999.90;;;;;;;17.99;100.00;95518.22;5071919;28;20288;-61
2021/05/27 02:25:14;;;;;;;1999.90;999.90;;;;;;;17.93;100.00;95522.22;5072100;28;20266;-61
2021/05/27 02:27:41;;;;;;;1999.90;999.90;;;;;;;17.96;100.00;95526.78;5072142;28;20254;-63
2021/05/27 02:30:09;;;;;;;1999.90;999.90;;;;;;;17.88;100.00;95527.72;5072336;28;20324;-61
2021/05/27 02:32:37;;;;;;;1999.90;999.90;;;;;;;17.90;100.00;95538.66;5071917;28;20224;-61
2021/05/27 02:35:08;;;;;;;1999.90;999.90;;;;;;;17.93;100.00;95538.00;5071968;28;20203;-60
2021/05/27 02:37:37;;;;;;;1999.90;999.90;;;;;;;18.00;100.00;95533.66;5072121;28;20189;-61
2021/05/27 02:40:06;;;;;;;1999.90;999.90;;;;;;;17.96;99.64;95532.81;5071886;28;20279;-61
2021/05/27 02:42:33;;;;;;;1999.90;999.90;;;;;;;17.90;100.00;95525.50;5071834;28;20276;-60
2021/05/27 02:45:00;;;;;;;1999.90;999.90;;;;;;;17.84;100.00;95530.25;5071825;28;20203;-61
2021/05/27 02:47:26;;;;;;;1999.90;999.90;;;;;;;17.83;99.16;95528.72;5071684;28;20196;-61
2021/05/27 02:49:54;;;;;;;1999.90;999.90;;;;;;;17.93;98.72;95525.59;5071708;28;20198;-61
2021/05/27 02:52:21;;;;;;;1999.90;999.90;;;;;;;18.00;97.86;95520.50;5071702;28;20780;-60
2021/05/27 02:54:47;;;;;;;1999.90;999.90;;;;;;;17.97;97.99;95523.06;5071527;28;20199;-60
2021/05/27 02:57:14;;;;;;;1999.90;999.90;;;;;;;17.92;97.19;95521.47;5071366;28;20198;-61
2021/05/27 02:59:44;;;;;;;1999.90;999.90;;;;;;;17.90;97.25;95523.66;5071322;28;20199;-59
2021/05/27 03:02:10;;;;;;;1999.90;999.90;;;;;;;18.06;96.32;95521.78;5071283;28;20197;-60
2021/05/27 03:04:37;;;;;;;1999.90;999.90;;;;;;;18.06;96.17;95526.28;5071504;28;20394;-60
2021/05/27 03:07:05;;;;;;;1999.90;999.90;;;;;;;17.94;97.12;95516.59;5071650;28;20197;-60
2021/05/27 03:09:32;;;;;;;1999.90;999.90;;;;;;;17.93;96.81;95517.69;5071406;28;20231;-61
2021/05/27 03:11:59;;;;;;;1999.90;999.90;;;;;;;17.98;96.85;95529.84;5071289;28;20369;-61
2021/05/27 03:14:26;;;;;;;1999.90;999.90;;;;;;;17.99;97.00;95520.84;5071177;28;20203;-62
2021/05/27 03:16:52;;;;;;;1999.90;999.90;;;;;;;18.05;96.46;95527.38;5071393;28;20668;-62
2021/05/27 03:19:19;;;;;;;1999.90;999.90;;;;;;;18.02;96.57;95526.22;5071067;28;20618;-60
2021/05/27 03:21:47;;;;;;;1999.90;999.90;;;;;;;18.09;96.59;95530.84;5070859;28;20319;-62
2021/05/27 03:24:15;;;;;;;1999.90;999.90;;;;;;;18.13;95.72;95534.34;5070942;28;20300;-60
2021/05/27 03:26:42;;;;;;;1999.90;999.90;;;;;;;18.05;96.46;95522.88;5070901;28;20201;-62
2021/05/27 03:29:08;;;;;;;1999.90;999.90;;;;;;;18.13;96.25;95521.22;5070866;28;20201;-61
2021/05/27 03:31:35;;;;;;;1999.90;999.90;;;;;;;18.13;96.81;95521.22;5071058;28;20291;-61
2021/05/27 03:34:02;;;;;;;1999.90;999.90;;;;;;;18.25;98.32;95522.97;5070813;28;20219;-62
2021/05/27 03:36:29;;;;;;;1999.90;999.90;;;;;;;18.18;98.88;95523.56;5070953;28;20263;-63
2021/05/27 03:38:56;;;;;;;1999.90;999.90;;;;;;;18.20;99.73;95526.63;5070764;28;20724;-61
2021/05/27 03:41:23;;;;;;;1999.90;999.90;;;;;;;18.21;99.07;95524.75;5070585;28;20196;-61
2021/05/27 03:43:50;;;;;;;1999.90;999.90;;;;;;;18.22;97.78;95528.91;5070787;28;20202;-61
2021/05/27 03:46:17;;;;;;;1999.90;999.90;;;;;;;18.26;97.14;95538.41;5070875;28;20288;-60
2021/05/27 03:48:44;;;;;;;1999.90;999.90;;;;;;;18.33;95.95;95540.47;5070656;28;20196;-62
2021/05/27 03:51:11;;;;;;;1999.90;999.90;;;;;;;18.35;95.76;95544.25;5070795;28;20275;-60
2021/05/27 03:53:38;;;;;;;1999.90;999.90;;;;;;;18.43;95.35;95539.94;5070278;28;20228;-61
2021/05/27 03:56:05;;;;;;;1999.90;999.90;;;;;;;18.38;95.63;95532.31;5070380;28;20734;-61
2021/05/27 04:01:17;;;;;;;1999.90;999.90;;;;;;;18.56;94.67;95536.13;5070499;28;20267;-61
2021/05/27 04:09:22;;;;;;;1999.90;999.90;;;;;;;18.72;92.98;95554.53;5070403;28;20239;-62
2021/05/27 04:11:49;;;;;;;1999.90;999.90;;;;;;;18.70;93.49;95562.75;5070100;28;20193;-60
2021/05/27 04:14:16;;;;;;;1999.90;999.90;;;;;;;18.77;93.32;95564.78;5070282;28;20684;-60
2021/05/27 04:16:43;;;;;;;1999.90;999.90;;;;;;;18.76;94.72;95568.53;5070022;28;20207;-60
2021/05/27 04:19:10;;;;;;;1999.90;999.90;;;;;;;18.65;92.45;95562.25;5070332;28;20201;-60
2021/05/27 04:21:38;;;;;;;1999.90;999.90;;;;;;;18.73;89.45;95559.41;5069823;28;20236;-61
2021/05/27 04:24:05;;;;;;;1999.90;999.90;;;;;;;18.75;88.92;95561.72;5070394;28;20242;-61
2021/05/27 04:26:32;;;;;;;1999.90;999.90;;;;;;;18.70;88.70;95556.72;5069943;28;20199;-62
2021/05/27 04:28:59;;;;;;;1999.90;999.90;;;;;;;18.89;87.00;95569.91;5070108;28;20307;-60
2021/05/27 04:31:26;;;;;;;1999.90;999.90;;;;;;;19.16;85.47;95566.38;5070229;28;20192;-61
2021/05/27 04:33:55;;;;;;;1999.90;999.90;;;;;;;19.54;84.79;95560.34;5070081;28;20667;-62
2021/05/27 04:36:22;;;;;;;1999.90;999.90;;;;;;;19.93;82.80;95561.03;5070347;28;20200;-62
2021/05/27 04:38:50;;;;;;;1999.90;999.90;;;;;;;20.13;83.72;95573.06;5069830;28;20209;-60
2021/05/27 04:41:18;;;;;;;1999.90;999.90;;;;;;;20.22;82.64;95572.09;5069723;28;20236;-61
2021/05/27 04:43:47;;;;;;;1999.90;999.90;;;;;;;20.22;80.76;95574.72;5069833;28;20192;-62
2021/05/27 04:46:14;;;;;;;1999.90;999.90;;;;;;;20.35;81.16;95571.59;5070685;28;20196;-61
2021/05/27 04:48:42;;;;;;;1999.90;999.90;;;;;;;20.60;79.00;95567.44;5074130;28;20204;-62
2021/05/27 04:51:09;;;;;;;1999.90;999.90;;;;;;;20.53;78.50;95569.97;5073977;28;20663;-60
2021/05/27 04:53:35;;;;;;;1999.90;999.90;;;;;;;20.31;80.55;95568.13;5073818;28;20228;-62
2021/05/27 04:56:04;;;;;;;1999.90;999.90;;;;;;;20.46;79.79;95569.88;5073800;28;20577;-62
2021/05/27 04:58:31;;;;;;;1999.90;999.90;;;;;;;20.36;77.79;95570.47;5073979;28;20305;-62
2021/05/27 05:00:58;;;;;;;1999.90;999.90;;;;;;;20.49;79.76;95573.69;5073800;28;20242;-63
2021/05/27 05:03:24;;;;;;;1999.90;999.90;;;;;;;20.40;76.23;95571.28;5073777;28;20208;-61
2021/05/27 05:05:53;;;;;;;1999.90;999.90;;;;;;;20.35;76.96;95568.94;5073732;28;20664;-63
2021/05/27 05:08:19;;;;;;;1999.90;999.90;;;;;;;20.17;78.19;95565.25;5074085;28;20614;-61
2021/05/27 05:10:47;;;;;;;1999.90;999.90;;;;;;;20.17;77.68;95571.25;5073552;28;20247;-61
2021/05/27 05:13:14;;;;;;;1999.90;999.90;;;;;;;20.28;77.07;95560.09;5073392;28;20604;-61
2021/05/27 05:15:42;;;;;;;1999.90;999.90;;;;;;;20.37;78.08;95565.97;5073733;28;20627;-61
2021/05/27 05:18:11;;;;;;;1999.90;999.90;;;;;;;20.41;79.27;95562.25;5073389;28;20188;-61
2021/05/27 05:20:40;;;;;;;1999.90;999.90;;;;;;;20.59;75.95;95568.56;5073646;28;20650;-62
2021/05/27 05:23:08;;;;;;;1999.90;999.90;;;;;;;20.40;78.30;95563.38;5073248;28;20200;-61
2021/05/27 05:25:36;;;;;;;1999.90;999.90;;;;;;;20.38;77.52;95559.53;5072698;28;20436;-60
2021/05/27 05:28:03;;;;;;;1999.90;999.90;;;;;;;20.64;76.02;95567.50;5073660;28;20251;-62
2021/05/27 05:30:31;;;;;;;1999.90;999.90;;;;;;;20.57;75.60;95567.41;5073564;28;20660;-62
2021/05/27 05:32:58;;;;;;;1999.90;999.90;;;;;;;20.59;75.51;95565.91;5073086;28;20715;-61
2021/05/27 05:35:25;;;;;;;1999.90;999.90;;;;;;;20.83;72.41;95572.66;5073361;28;20675;-62
2021/05/27 05:37:53;;;;;;;1999.90;999.90;;;;;;;20.89;74.90;95578.41;5073272;28;20571;-60
2021/05/27 05:40:23;;;;;;;1999.90;999.90;;;;;;;21.16;73.46;95582.59;5073443;28;20240;-62
2021/05/27 05:42:50;;;;;;;1999.90;999.90;;;;;;;21.11;72.23;95574.19;5073296;28;20291;-60
2021/05/27 05:45:18;;;;;;;1999.90;999.90;;;;;;;21.22;70.37;95575.09;5073052;28;20568;-62
2021/05/27 05:47:45;;;;;;;1999.90;999.90;;;;;;;21.22;72.23;95573.19;5072889;28;20205;-61
2021/05/27 05:50:14;;;;;;;1999.90;999.90;;;;;;;21.35;69.08;95574.50;5072817;28;20283;-61
2021/05/27 05:52:41;;;;;;;1999.90;999.90;;;;;;;21.42;71.82;95569.28;5072765;28;20254;-63
2021/05/27 05:55:09;;;;;;;1999.90;999.90;;;;;;;21.75;69.30;95578.34;5073042;28;20197;-61
2021/05/27 05:57:36;;;;;;;1999.90;999.90;;;;;;;21.94;68.12;95588.03;5072147;28;20237;-62
2021/05/27 06:00:05;;;;;;;1999.90;999.90;;;;;;;22.14;68.19;95576.09;5072212;28;20878;-61
2021/05/27 06:02:32;;;;;;;1999.90;999.90;;;;;;;22.22;64.93;95575.03;5072545;28;20196;-61
2021/05/27 06:04:58;;;;;;;1999.90;999.90;;;;;;;22.40;68.32;95577.84;5072521;28;20197;-61
2021/05/27 06:07:25;;;;;;;1999.90;999.90;;;;;;;22.30;68.95;95571.34;5072445;28;20694;-60
2021/05/27 06:09:52;;;;;;;1999.90;999.90;;;;;;;22.48;68.43;95579.41;5072526;28;20203;-61
2021/05/27 06:12:19;;;;;;;1999.90;999.90;;;;;;;22.68;69.29;95578.03;5072373;28;20236;-60
2021/05/27 06:14:46;;;;;;;1999.90;999.90;;;;;;;22.63;64.82;95579.16;5072303;28;20296;-61
2021/05/27 06:17:13;;;;;;;1999.90;999.90;;;;;;;22.88;64.72;95573.28;5072385;28;20192;-61
2021/05/27 06:19:40;;;;;;;1999.90;999.90;;;;;;;22.60;63.89;95571.19;5072338;28;20251;-60
2021/05/27 06:22:07;;;;;;;1999.90;999.90;;;;;;;22.57;66.15;95567.38;5072299;28;20319;-61
2021/05/27 06:24:34;;;;;;;1999.90;999.90;;;;;;;22.65;64.89;95562.91;5072085;28;20227;-62
2021/05/27 06:27:01;;;;;;;1999.90;999.90;;;;;;;22.66;63.76;95564.41;5072504;28;20628;-60
2021/05/27 06:29:27;;;;;;;1999.90;999.90;;;;;;;22.57;67.05;95562.06;5072169;28;20579;-62
2021/05/27 06:31:55;;;;;;;1999.90;999.90;;;;;;;22.69;64.30;95553.06;5072200;28;20303;-61
2021/05/27 06:34:22;;;;;;;1999.90;999.90;;;;;;;22.86;67.27;95557.75;5072321;28;20197;-61
2021/05/27 06:36:49;;;;;;;1999.90;999.90;;;;;;;22.93;66.04;95549.06;5072208;28;20192;-61
2021/05/27 06:39:16;;;;;;;1999.90;999.90;;;;;;;22.93;64.64;95551.72;5072241;28;20300;-61
2021/05/27 06:41:43;;;;;;;1999.90;999.90;;;;;;;22.93;64.56;95555.13;5071882;28;20196;-61
2021/05/27 06:44:10;;;;;;;1999.90;999.90;;;;;;;23.06;64.22;95551.03;5071870;28;20196;-61
2021/05/27 06:46:36;;;;;;;1999.90;999.90;;;;;;;23.23;65.42;95548.84;5071709;28;20192;-61
2021/05/27 06:49:05;;;;;;;1999.90;999.90;;;;;;;23.44;66.34;95544.38;5072031;28;20253;-60
2021/05/27 06:51:32;;;;;;;1999.90;999.90;;;;;;;23.69;68.41;95538.41;5071979;28;20211;-59
2021/05/27 06:53:59;;;;;;;1999.90;999.90;;;;;;;23.75;65.30;95540.31;5071309;28;20228;-60
2021/05/27 06:56:26;;;;;;;1999.90;999.90;;;;;;;23.78;63.83;95536.91;5071605;28;20195;-62
2021/05/27 06:58:53;;;;;;;1999.90;999.90;;;;;;;23.50;67.27;95537.63;5071513;28;20668;-61
2021/05/27 07:01:19;;;;;;;1999.90;999.90;;;;;;;23.60;67.05;95533.47;5071521;28;20200;-61
2021/05/27 07:03:46;;;;;;;1999.90;999.90;;;;;;;23.68;66.87;95529.69;5071394;28;20232;-61
2021/05/27 07:06:14;;;;;;;1999.90;999.90;;;;;;;23.96;67.25;95529.00;5071663;28;20192;-61
2021/05/27 07:08:41;;;;;;;1999.90;999.90;;;;;;;23.96;67.80;95527.06;5071334;28;20288;-61
2021/05/27 07:11:07;;;;;;;1999.90;999.90;;;;;;;24.24;64.93;95526.38;5071028;28;20642;-61
2021/05/27 07:13:34;;;;;;;1999.90;999.90;;;;;;;24.18;66.53;95529.78;5071038;28;20224;-59
2021/05/27 07:16:01;;;;;;;1999.90;999.90;;;;;;;24.12;63.95;95525.94;5071004;28;20192;-60
2021/05/27 07:18:28;;;;;;;1999.90;999.90;;;;;;;24.02;67.13;95530.09;5071692;28;20236;-60
2021/05/27 07:20:55;;;;;;;1999.90;999.90;;;;;;;24.40;67.59;95526.75;5070972;28;20228;-60
2021/05/27 07:23:25;;;;;;;1999.90;999.90;;;;;;;24.46;65.36;95534.34;5071044;28;20270;-60
2021/05/27 07:25:52;;;;;;;1999.90;999.90;;;;;;;24.46;67.33;95532.41;5071060;28;20197;-60
2021/05/27 07:28:23;;;;;;;1999.90;999.90;;;;;;;24.71;64.10;95527.06;5071058;28;20199;-60
2021/05/27 07:30:50;;;;;;;1999.90;999.90;;;;;;;24.36;65.00;95523.31;5071066;28;20204;-59
2021/05/27 07:33:19;;;;;;;1999.90;999.90;;;;;;;24.31;67.46;95531.66;5070936;28;20352;-60
2021/05/27 07:35:45;;;;;;;1999.90;999.90;;;;;;;24.21;66.76;95518.41;5071184;28;20196;-61
2021/05/27 07:38:12;;;;;;;1999.90;999.90;;;;;;;24.40;67.73;95512.69;5070838;28;20196;-62
2021/05/27 07:40:40;;;;;;;1999.90;999.90;;;;;;;24.75;65.39;95517.97;5070667;28;20197;-61
2021/05/27 07:43:07;;;;;;;1999.90;999.90;;;;;;;24.85;68.10;95511.84;5070978;28;20575;-61
2021/05/27 07:45:34;;;;;;;1999.90;999.90;;;;;;;25.11;62.43;95510.63;5071364;28;20254;-61
2021/05/27 07:48:00;;;;;;;1999.90;999.90;;;;;;;24.78;64.51;95506.53;5070633;28;20196;-61
2021/05/27 07:50:27;;;;;;;1999.90;999.90;;;;;;;25.08;64.89;95502.69;5070645;28;20667;-63
2021/05/27 07:52:55;;;;;;;1999.90;999.90;;;;;;;25.10;64.94;95505.72;5070361;28;21290;-61
2021/05/27 07:55:23;;;;;;;1999.90;999.90;;;;;;;25.24;63.67;95510.97;5070504;28;20218;-62
2021/05/27 07:57:51;;;;;;;1999.90;999.90;;;;;;;25.33;62.47;95508.66;5069443;28;20262;-61
2021/05/27 08:00:19;;;;;;;1999.90;999.90;;;;;;;25.36;62.77;95496.47;5070425;28;20197;-61
2021/05/27 08:02:47;;;;;;;1999.90;999.90;;;;;;;25.37;61.54;95503.31;5070445;28;20613;-61
2021/05/27 08:05:15;;;;;;;1999.90;999.90;;;;;;;25.41;61.56;95499.47;5070346;28;20664;-61
2021/05/27 08:07:42;;;;;;;1999.90;999.90;;;;;;;25.30;63.91;95498.78;5070350;28;20608;-62
2021/05/27 08:10:12;;;;;;;1999.90;999.90;;;;;;;25.64;62.92;95497.13;5070216;28;20193;-61
2021/05/27 08:12:38;;;;;;;1999.90;999.90;;;;;;;25.65;65.00;95489.88;5070462;28;20228;-61
2021/05/27 08:15:07;;;;;;;1999.90;999.90;;;;;;;25.60;63.95;95493.69;5070581;28;20208;-60
2021/05/27 08:17:34;;;;;;;1999.90;999.90;;;;;;;25.82;63.01;95488.25;5070176;28;20192;-62
2021/05/27 08:20:01;;;;;;;1999.90;999.90;;;;;;;25.66;62.33;95489.47;5070033;28;20741;-61
2021/05/27 08:22:28;;;;;;;1999.90;999.90;;;;;;;25.91;61.79;95486.66;5069599;28;20662;-62
2021/05/27 08:24:55;;;;;;;1999.90;999.90;;;;;;;25.89;63.08;95470.31;5070214;28;20252;-61
2021/05/27 08:27:22;;;;;;;1999.90;999.90;;;;;;;25.91;61.34;95468.00;5070129;28;20202;-61
2021/05/27 08:29:49;;;;;;;1999.90;999.90;;;;;;;26.15;64.00;95468.97;5070044;28;20224;-63
2021/05/27 08:32:16;;;;;;;1999.90;999.90;;;;;;;26.40;64.60;95461.50;5069910;28;20196;-61
2021/05/27 08:34:43;;;;;;;1999.90;999.90;;;;;;;26.30;60.61;95462.38;5069986;28;20200;-61
2021/05/27 08:37:10;;;;;;;1999.90;999.90;;;;;;;26.19;60.88;95459.03;5070001;28;20284;-60
2021/05/27 08:39:37;;;;;;;1999.90;999.90;;;;;;;26.28;64.94;95462.03;5069893;28;20223;-62
2021/05/27 08:42:04;;;;;;;1999.90;999.90;;;;;;;26.41;62.46;95455.03;5070010;28;20192;-61
2021/05/27 08:44:33;;;;;;;1999.90;999.90;;;;;;;26.56;60.27;95451.06;5069895;28;20308;-62
2021/05/27 08:47:01;;;;;;;1999.90;999.90;;;;;;;26.70;61.83;95450.16;5069896;28;20204;-62
2021/05/27 08:49:30;;;;;;;1999.90;999.90;;;;;;;26.47;60.88;95456.13;5069784;28;20197;-61
2021/05/27 08:51:57;;;;;;;1999.90;999.90;;;;;;;26.54;60.59;95461.38;5070154;28;20193;-62
2021/05/27 08:54:23;;;;;;;1999.90;999.90;;;;;;;26.44;59.95;95450.84;5069982;28;20691;-62
2021/05/27 08:56:50;;;;;;;1999.90;999.90;;;;;;;26.30;64.29;95449.03;5069749;28;20203;-62
2021/05/27 08:59:17;;;;;;;1999.90;999.90;;;;;;;26.41;62.22;95446.28;5069752;28;20231;-61
2021/05/27 09:02:00;;;;;;;1999.90;999.90;;;;;;;26.32;63.05;95444.09;5069733;28;20288;-61
2021/05/27 09:04:28;;;;;;;1999.90;999.90;;;;;;;26.79;61.96;95444.34;5069964;28;20227;-61
2021/05/27 09:06:55;;;;;;;1999.90;999.90;;;;;;;26.73;61.04;95441.38;5069888;28;20253;-62
2021/05/27 09:09:22;;;;;;;1999.90;999.90;;;;;;;26.79;59.90;95439.03;5069881;28;20215;-60
2021/05/27 09:11:49;;;;;;;1999.90;999.90;;;;;;;26.76;63.98;95423.81;5069652;28;20279;-62
2021/05/27 09:14:16;;;;;;;1999.90;999.90;;;;;;;27.01;61.68;95426.97;5069682;28;20694;-61
2021/05/27 09:17:08;;;;;;;1999.90;999.90;;;;;;;27.13;62.36;95431.00;5069654;28;20196;-61
2021/05/27 09:19:36;;;;;;;1999.90;999.90;;;;;;;26.92;63.97;95424.78;5055587;28;20258;-61
2021/05/27 09:22:21;;;;;;;1999.90;999.90;;;;;;;27.04;59.13;95423.50;5069315;28;20703;-62
2021/05/27 09:24:48;;;;;;;1999.90;999.90;;;;;;;26.94;59.10;95417.16;5069583;28;20216;-61
2021/05/27 09:27:17;;;;;;;1999.90;999.90;;;;;;;27.10;60.82;95419.22;5068742;28;20224;-61
2021/05/27 09:29:45;;;;;;;1999.90;999.90;;;;;;;27.17;61.50;95415.69;5069852;28;20196;-61
2021/05/27 09:32:12;;;;;;;1999.90;999.90;;;;;;;27.37;61.38;95420.00;5069620;28;20196;-61
2021/05/27 09:34:45;;;;;;;1999.90;999.90;;;;;;;27.26;62.50;95414.03;5073141;28;20199;-62
2021/05/27 09:37:23;;;;;;;1999.90;999.90;;;;;;;27.41;60.16;95404.69;5073000;28;20582;-62
2021/05/27 09:39:51;;;;;;;1999.90;999.90;;;;;;;27.41;61.23;95402.00;5073337;28;20192;-61
2021/05/27 09:42:18;;;;;;;1999.90;999.90;;;;;;;27.58;59.25;95399.50;5073345;28;20200;-60
2021/05/27 09:44:46;;;;;;;1999.90;999.90;;;;;;;27.71;61.01;95384.41;5073160;28;20192;-60
2021/05/27 09:47:12;;;;;;;1999.90;999.90;;;;;;;27.77;57.66;95385.47;5073233;28;20645;-61
2021/05/27 09:49:58;;;;;;;1999.90;999.90;;;;;;;28.00;58.96;95390.03;5072902;28;20200;-61
2021/05/27 09:52:26;;;;;;;1999.90;999.90;;;;;;;27.94;56.82;95381.75;5073106;28;20338;-60
2021/05/27 09:54:55;;;;;;;1999.90;999.90;;;;;;;27.96;55.41;95379.41;5072741;28;20304;-61
2021/05/27 09:57:24;;;;;;;1999.90;999.90;;;;;;;27.85;55.38;95386.84;5072824;28;20744;-61
2021/05/27 09:59:51;;;;;;;1999.90;999.90;;;;;;;27.65;56.46;95372.69;5072643;28;20197;-61
2021/05/27 10:02:19;;;;;;;1999.90;999.90;;;;;;;27.61;57.69;95380.00;5072787;28;20196;-60
2021/05/27 10:05:09;;;;;;;1999.90;999.90;;;;;;;27.45;57.34;95371.84;5072982;28;20257;-60
2021/05/27 10:07:39;;;;;;;1999.90;999.90;;;;;;;27.82;59.19;95385.00;5072780;28;20196;-61
2021/05/27 10:10:08;;;;;;;1999.90;999.90;;;;;;;28.01;57.65;95376.28;5072508;28;20204;-60
2021/05/27 10:12:38;;;;;;;1999.90;999.90;;;;;;;28.19;54.87;95376.72;5072432;28;20234;-60
2021/05/27 10:15:08;;;;;;;1999.90;999.90;;;;;;;28.17;54.09;95368.38;5072589;28;20208;-60
2021/05/27 10:17:37;;;;;;;1999.90;999.90;;;;;;;28.25;51.64;95377.78;5072411;28;20216;-61
2021/05/27 10:20:07;;;;;;;1999.90;999.90;;;;;;;28.22;50.14;95359.13;5072404;28;20211;-59
2021/05/27 10:22:36;;;;;;;1999.90;999.90;;;;;;;28.35;48.45;95372.63;5072518;28;20231;-61
2021/05/27 10:25:06;;;;;;;1999.90;999.90;;;;;;;28.25;49.82;95364.41;5072108;28;20307;-61
2021/05/27 10:27:33;;;;;;;1999.90;999.90;;;;;;;28.19;46.40;95363.38;5072154;28;20203;-61
2021/05/27 10:30:01;;;;;;;1999.90;999.90;;;;;;;27.91;46.57;95363.09;5072426;28;20631;-61
2021/05/27 10:32:29;;;;;;;1999.90;999.90;;;;;;;28.01;49.76;95354.91;5072090;28;20193;-61
2021/05/27 10:34:56;;;;;;;1999.90;999.90;;;;;;;28.16;49.63;95350.84;5072289;28;20682;-61
2021/05/27 10:37:46;;;;;;;1999.90;999.90;;;;;;;28.20;47.62;95343.50;5071993;28;20199;-61
2021/05/27 10:40:38;;;;;;;1999.90;999.90;;;;;;;28.02;48.60;95344.97;5071915;28;20196;-61
2021/05/27 10:43:10;;;;;;;1999.90;999.90;;;;;;;27.99;47.18;95341.22;5072073;28;20200;-60
2021/05/27 10:46:05;;;;;;;1999.90;999.90;;;;;;;28.20;49.92;95340.06;5071419;28;20265;-61
2021/05/27 10:48:40;;;;;;;1999.90;999.90;;;;;;;28.25;45.84;95343.03;5071809;28;20583;-60
2021/05/27 10:51:11;;;;;;;1999.90;999.90;;;;;;;27.99;44.67;95345.78;5072092;28;20589;-61
2021/05/27 10:53:57;;;;;;;1999.90;999.90;;;;;;;28.28;46.74;95346.81;5071702;28;20232;-60
2021/05/27 10:56:43;;;;;;;1999.90;999.90;;;;;;;28.53;47.25;95340.97;5071584;28;20678;-62
2021/05/27 10:59:15;;;;;;;1999.90;999.90;;;;;;;28.51;46.10;95345.97;5071803;28;20197;-62
2021/05/27 11:01:55;;;;;;;1999.90;999.90;;;;;;;28.32;45.22;95344.06;5071735;28;20197;-61
2021/05/27 11:04:28;;;;;;;1999.90;999.90;;;;;;;28.45;46.50;95337.69;5071526;28;20558;-60
2021/05/27 11:07:15;;;;;;;1999.90;999.90;;;;;;;28.55;45.82;95338.63;5071226;28;20687;-62
2021/05/27 11:09:45;;;;;;;1999.90;999.90;;;;;;;28.50;42.57;95339.09;5071692;28;20287;-61
2021/05/27 11:12:25;;;;;;;1999.90;999.90;;;;;;;28.26;43.16;95325.06;5071610;28;20204;-61